createdAt,value
2022-08-12T00:03:17.654Z,19.07
2022-08-12T00:08:46.111Z,19.01
2022-08-12T00:14:10.875Z,18.95
2022-08-12T00:19:36.014Z,18.95
2022-08-12T00:25:01.003Z,18.93
2022-08-12T00:30:27.483Z,18.90
2022-08-12T00:35:51.980Z,18.83
2022-08-12T00:41:19.188Z,18.75
2022-08-12T00:46:36.651Z,18.69
2022-08-12T00:52:02.213Z,18.67
2022-08-12T00:57:10.603Z,18.59
2022-08-12T01:02:23.904Z,18.49
2022-08-12T01:07:51.082Z,18.41
2022-08-12T01:13:07.569Z,18.43
2022-08-12T01:18:26.565Z,18.49
2022-08-12T01:23:46.285Z,18.54
2022-08-12T01:28:55.299Z,18.53
2022-08-12T01:34:05.714Z,18.47
2022-08-12T01:39:33.752Z,18.39
2022-08-12T01:44:41.602Z,18.32
2022-08-12T01:50:05.429Z,18.31
2022-08-12T01:55:14.522Z,18.33
2022-08-12T02:00:21.216Z,18.40
2022-08-12T02:06:08.523Z,18.46
2022-08-12T02:11:23.241Z,18.52
2022-08-12T02:16:51.081Z,18.55
2022-08-12T02:22:05.008Z,18.59
2022-08-12T02:27:15.344Z,18.58
2022-08-12T02:32:22.134Z,18.58
2022-08-12T02:37:31.193Z,18.54
2022-08-12T02:42:39.315Z,18.49
2022-08-12T02:47:59.672Z,18.49
2022-08-12T02:53:08.141Z,18.54
2022-08-12T02:58:14.955Z,18.59
2022-08-12T03:03:27.435Z,18.57
2022-08-12T03:08:42.282Z,18.54
2022-08-12T03:13:55.565Z,18.52
2022-08-12T03:19:01.505Z,18.49
2022-08-12T03:24:09.281Z,18.50
2022-08-12T03:29:19.455Z,18.56
2022-08-12T03:34:29.876Z,18.60
2022-08-12T03:39:38.488Z,18.64
2022-08-12T03:45:12.058Z,18.61
2022-08-12T03:50:37.940Z,18.56
2022-08-12T03:56:02.524Z,18.53
2022-08-12T04:01:08.989Z,18.54
2022-08-12T04:06:14.852Z,18.57
2022-08-12T04:11:46.726Z,18.56
2022-08-12T04:16:53.627Z,18.55
2022-08-12T04:22:03.507Z,18.52
2022-08-12T04:27:11.799Z,18.50
2022-08-12T04:32:17.575Z,18.58
2022-08-12T04:37:23.921Z,18.67
2022-08-12T04:42:29.707Z,18.73
2022-08-12T04:47:36.458Z,19.31
2022-08-12T04:52:43.136Z,21.62
2022-08-12T04:57:49.169Z,24.26
2022-08-12T05:02:57.543Z,24.47
2022-08-12T05:08:27.047Z,23.37
2022-08-12T05:18:29.661Z,22.11
2022-08-12T05:23:38.740Z,21.77
2022-08-12T05:28:45.302Z,21.85
2022-08-12T05:33:51.903Z,24.20
2022-08-12T05:38:58.264Z,28.24
2022-08-12T05:44:07.790Z,31.20
2022-08-12T05:49:14.145Z,31.54
2022-08-12T05:54:35.321Z,31.46
2022-08-12T05:59:46.496Z,32.88
2022-08-12T06:04:53.743Z,34.68
2022-08-12T06:10:01.010Z,36.39
2022-08-12T06:15:06.045Z,37.45
2022-08-12T06:20:26.831Z,38.83
2022-08-12T06:25:35.774Z,38.11
2022-08-12T06:30:41.777Z,37.30
2022-08-12T06:35:50.285Z,36.35
2022-08-12T06:41:16.789Z,36.85
2022-08-12T06:46:24.419Z,37.40
2022-08-12T06:51:32.358Z,38.69
2022-08-12T07:02:04.521Z,41.02
2022-08-12T07:07:11.102Z,41.49
2022-08-12T07:12:19.421Z,41.96
2022-08-12T07:17:25.931Z,42.53
2022-08-12T07:22:33.128Z,42.69
2022-08-12T07:27:42.680Z,42.90
2022-08-12T07:32:51.408Z,43.43
2022-08-12T07:37:58.040Z,43.70
2022-08-12T07:43:03.891Z,43.79
2022-08-12T07:48:09.862Z,43.10
2022-08-12T07:53:15.901Z,41.81
2022-08-12T07:58:26.410Z,38.75
2022-08-12T08:03:32.571Z,37.02
2022-08-12T08:08:38.755Z,37.49
2022-08-12T08:13:47.311Z,36.57
2022-08-12T08:18:55.929Z,36.28
2022-08-12T08:24:17.516Z,35.26
2022-08-12T08:29:24.467Z,33.31
2022-08-12T08:34:53.921Z,31.76
2022-08-12T08:40:17.200Z,30.49
2022-08-12T08:45:23.274Z,29.75
2022-08-12T08:50:29.697Z,29.31
2022-08-12T08:56:01.552Z,30.57
2022-08-12T09:01:08.299Z,33.05
2022-08-12T09:06:17.026Z,34.78
2022-08-12T09:12:07.023Z,36.25
2022-08-12T09:17:08.839Z,36.25
2022-08-12T09:28:18.086Z,34.75
2022-08-12T09:33:14.741Z,32.96
2022-08-12T09:38:29.986Z,31.23
2022-08-12T09:44:00.734Z,30.14
2022-08-12T09:49:13.385Z,29.15
2022-08-12T09:54:32.703Z,28.64
2022-08-12T10:00:12.997Z,28.81
2022-08-12T10:05:14.017Z,28.42
2022-08-12T10:10:30.557Z,28.68
2022-08-12T10:16:01.945Z,29.90
2022-08-12T10:21:04.876Z,32.11
2022-08-12T10:26:37.569Z,33.14
2022-08-12T10:32:22.013Z,33.37
2022-08-12T10:37:23.521Z,33.44
2022-08-12T10:43:08.079Z,31.98
2022-08-12T10:48:21.250Z,30.69
2022-08-12T10:53:45.945Z,30.33
2022-08-12T10:58:55.696Z,29.70
2022-08-12T11:04:31.476Z,29.24
2022-08-12T11:09:56.243Z,28.99
2022-08-12T11:14:59.881Z,28.87
2022-08-12T11:20:30.625Z,28.61
2022-08-12T11:25:55.750Z,28.22
2022-08-12T11:31:03.843Z,28.21
2022-08-12T11:36:16.432Z,28.42
2022-08-12T11:41:31.150Z,28.58
2022-08-12T11:46:40.520Z,28.98
2022-08-12T11:51:57.846Z,29.47
2022-08-12T11:58:15.193Z,29.77
2022-08-12T12:02:31.912Z,29.99
2022-08-12T12:08:40.979Z,30.16
2022-08-12T12:13:22.845Z,30.00
2022-08-12T12:18:31.286Z,29.91
2022-08-12T12:23:38.040Z,29.79
2022-08-12T12:28:54.211Z,29.49
2022-08-12T12:34:03.467Z,29.15
2022-08-12T12:39:12.856Z,28.71
2022-08-12T12:44:26.083Z,28.33
2022-08-12T12:49:53.637Z,27.89
2022-08-12T12:59:04.075Z,27.61
2022-08-12T13:04:13.604Z,28.15
2022-08-12T13:09:22.234Z,29.03
2022-08-12T13:14:31.294Z,29.77
2022-08-12T13:19:43.451Z,29.93
2022-08-12T13:24:56.852Z,30.22
2022-08-12T13:30:07.042Z,30.46
2022-08-12T13:35:19.871Z,30.22
2022-08-12T13:40:41.767Z,29.88
2022-08-12T13:45:52.123Z,29.65
2022-08-12T13:50:57.945Z,29.36
2022-08-12T13:56:04.109Z,29.12
2022-08-12T14:01:09.960Z,28.85
2022-08-12T14:06:17.005Z,28.86
2022-08-12T14:11:25.467Z,28.85
2022-08-12T14:16:46.706Z,28.81
2022-08-12T14:22:00.793Z,28.95
2022-08-12T14:27:12.114Z,29.04
2022-08-12T14:32:18.101Z,28.89
2022-08-12T14:37:56.106Z,28.93
2022-08-12T14:42:51.305Z,28.95
2022-08-12T14:47:58.363Z,28.79
2022-08-12T14:58:37.747Z,28.61
2022-08-12T15:04:02.231Z,28.46
2022-08-12T15:09:09.251Z,28.51
2022-08-12T15:14:16.486Z,28.43
2022-08-12T15:20:11.460Z,28.47
2022-08-12T15:24:51.065Z,28.24
2022-08-12T15:29:56.851Z,28.07
2022-08-12T15:35:02.761Z,27.84
2022-08-12T15:40:12.070Z,27.55
2022-08-12T15:45:23.702Z,27.24
2022-08-12T15:50:31.461Z,26.94
2022-08-12T15:55:46.319Z,26.74
2022-08-12T16:00:52.867Z,26.57
2022-08-12T16:06:12.068Z,26.37
2022-08-12T16:11:26.657Z,26.18
2022-08-12T16:16:35.398Z,25.85
2022-08-12T16:21:50.717Z,24.34
2022-08-12T16:27:01.391Z,22.74
2022-08-12T16:32:09.209Z,21.74
2022-08-12T16:37:15.591Z,21.31
2022-08-12T16:42:22.690Z,21.13
2022-08-12T16:47:57.614Z,20.99
2022-08-12T16:53:03.825Z,20.84
2022-08-12T16:58:28.454Z,20.72
2022-08-12T17:03:37.658Z,20.67
2022-08-12T17:08:49.785Z,20.69
2022-08-12T17:14:01.990Z,20.73
2022-08-12T17:19:09.063Z,20.75
2022-08-12T17:24:21.470Z,20.81
2022-08-12T17:30:01.329Z,20.85
2022-08-12T17:35:14.003Z,20.90
2022-08-12T17:40:35.939Z,20.91
2022-08-12T17:45:49.327Z,20.92
2022-08-12T17:51:01.189Z,20.90
2022-08-12T17:56:21.253Z,20.88
2022-08-12T18:01:29.193Z,20.85
2022-08-12T18:06:50.483Z,20.83
2022-08-12T18:12:24.271Z,20.81
2022-08-12T18:17:34.720Z,20.81
2022-08-12T18:22:55.874Z,20.81
2022-08-12T18:28:15.367Z,20.78
2022-08-12T18:33:31.454Z,20.78
2022-08-12T18:38:59.265Z,20.77
2022-08-12T18:44:13.642Z,20.73
2022-08-12T18:49:29.699Z,20.72
2022-08-12T18:54:48.050Z,20.70
2022-08-12T19:00:06.908Z,20.71
2022-08-12T19:05:17.496Z,20.70
2022-08-12T19:10:24.938Z,20.67
2022-08-12T19:15:31.768Z,20.65
2022-08-12T19:20:48.060Z,20.61
2022-08-12T19:26:02.187Z,20.57
2022-08-12T19:31:45.277Z,20.57
2022-08-12T19:37:06.147Z,20.55
2022-08-12T19:42:15.790Z,20.53
2022-08-12T19:47:23.017Z,20.54
2022-08-12T19:52:34.464Z,20.58
2022-08-12T19:58:01.453Z,20.55
2022-08-12T20:03:39.029Z,20.50
2022-08-12T20:08:40.371Z,20.47
2022-08-12T20:14:00.990Z,20.43
2022-08-12T20:19:09.594Z,20.44
2022-08-12T20:24:15.756Z,20.33
2022-08-12T20:29:22.187Z,20.28
2022-08-12T20:34:28.656Z,20.23
2022-08-12T20:39:53.261Z,20.15
2022-08-12T20:45:01.189Z,20.05
2022-08-12T20:50:09.211Z,19.93
2022-08-12T20:55:15.865Z,19.86
2022-08-12T21:00:28.511Z,19.84
2022-08-12T21:06:12.915Z,19.84
2022-08-12T21:11:22.736Z,19.78
2022-08-12T21:16:35.890Z,19.71
2022-08-12T21:21:49.994Z,19.64
2022-08-12T21:26:58.288Z,19.61
2022-08-12T21:32:36.348Z,19.60
2022-08-12T21:37:41.700Z,19.60
2022-08-12T21:42:47.528Z,19.62
2022-08-12T21:47:54.150Z,19.66
2022-08-12T21:52:59.850Z,19.67
2022-08-12T21:58:21.012Z,19.70
2022-08-12T22:04:03.771Z,19.65
2022-08-12T22:09:16.352Z,19.62
2022-08-12T22:14:24.183Z,19.57
2022-08-12T22:19:34.864Z,19.53
2022-08-12T22:24:41.739Z,19.57
2022-08-12T22:30:07.040Z,19.59
2022-08-12T22:35:47.282Z,19.59
2022-08-12T22:41:00.992Z,19.59
2022-08-12T22:46:22.636Z,19.63
2022-08-12T22:52:00.236Z,19.67
2022-08-12T22:56:58.453Z,19.63
2022-08-12T23:02:07.986Z,19.58
2022-08-12T23:07:17.520Z,19.58
2022-08-12T23:12:49.550Z,19.55
2022-08-12T23:17:57.769Z,19.56
2022-08-12T23:23:08.835Z,19.57
2022-08-12T23:28:34.571Z,19.57
2022-08-12T23:34:00.157Z,19.58
2022-08-12T23:39:06.914Z,19.61
2022-08-12T23:44:36.011Z,19.64
2022-08-12T23:49:58.377Z,19.57
2022-08-12T23:55:25.098Z,19.52
